Ceres Airport


Codes: SANW/CRR
Name: Ceres Airport
City: Ceres
Country: Argentina
Elevation: 285 ft.

Photos at Ceres Airport


   Photos courtesy of SpottingLog. You can add your own sightings and photos by signing up for a free trial today.



No photos found.

Weather at Ceres Airport


Time (UTC)DescriptionTempratureWindCloud coverageVisibilityPressureHumidity
15-Apr-2024 18:00Light Rain16°C9 mph, SW100%10000m1007hPa92%
15-Apr-2024 21:00Broken Clouds17°C7 mph, SW69%10000m1007hPa87%
16-Apr-2024 00:00Scattered Clouds15°C4 mph, NW40%10000m1009hPa93%
16-Apr-2024 03:00Overcast Clouds15°C7 mph, NE100%10000m1010hPa93%
16-Apr-2024 06:00Overcast Clouds14°C7 mph, N99%10000m1010hPa96%
16-Apr-2024 09:00Clear Sky13°C9 mph, SW0%10000m1011hPa94%
16-Apr-2024 12:00Clear Sky16°C11 mph, S0%10000m1014hPa84%
16-Apr-2024 15:00Clear Sky20°C11 mph, S1%10000m1016hPa60%
16-Apr-2024 18:00Clear Sky23°C11 mph, SE0%10000m1014hPa49%
16-Apr-2024 21:00Clear Sky20°C4 mph, SE0%10000m1015hPa68%
17-Apr-2024 00:00Clear Sky16°C4 mph, NE0%10000m1017hPa74%
17-Apr-2024 03:00Clear Sky14°C7 mph, N0%10000m1019hPa77%
17-Apr-2024 06:00Clear Sky14°C7 mph, N0%10000m1019hPa80%
17-Apr-2024 09:00Clear Sky13°C7 mph, N0%10000m1019hPa80%
17-Apr-2024 12:00Clear Sky16°C4 mph, N6%10000m1020hPa71%
17-Apr-2024 15:00Clear Sky22°C7 mph, NW4%10000m1021hPa51%
17-Apr-2024 18:00Few Clouds24°C7 mph, N20%10000m1019hPa46%
17-Apr-2024 21:00Broken Clouds22°C4 mph, N68%10000m1018hPa63%
18-Apr-2024 00:00Scattered Clouds17°C4 mph, NE48%10000m1019hPa69%
18-Apr-2024 03:00Clear Sky16°C7 mph, NE2%10000m1020hPa74%
18-Apr-2024 06:00Clear Sky15°C7 mph, NE9%10000m1020hPa83%
18-Apr-2024 09:00Scattered Clouds14°C7 mph, NE41%10000m1020hPa90%
18-Apr-2024 12:00Scattered Clouds17°C7 mph, NE50%10000m1021hPa82%
18-Apr-2024 15:00Scattered Clouds23°C11 mph, N44%10000m1020hPa57%
18-Apr-2024 18:00Broken Clouds25°C11 mph, N62%10000m1017hPa46%
18-Apr-2024 21:00Overcast Clouds21°C7 mph, NE96%10000m1015hPa64%
19-Apr-2024 00:00Overcast Clouds18°C9 mph, NE97%10000m1016hPa69%
19-Apr-2024 03:00Broken Clouds16°C9 mph, NE71%10000m1016hPa72%
19-Apr-2024 06:00Scattered Clouds15°C9 mph, NE50%10000m1015hPa80%
19-Apr-2024 09:00Clear Sky14°C9 mph, NE6%10000m1015hPa88%
19-Apr-2024 12:00Clear Sky17°C11 mph, NE4%10000m1016hPa80%
19-Apr-2024 15:00Clear Sky23°C13 mph, NE0%10000m1015hPa54%
19-Apr-2024 18:00Clear Sky26°C11 mph, NE0%10000m1012hPa45%
19-Apr-2024 21:00Clear Sky23°C9 mph, NE0%10000m1011hPa64%
20-Apr-2024 00:00Clear Sky19°C9 mph, NE0%10000m1013hPa70%
20-Apr-2024 03:00Clear Sky18°C9 mph, NE0%10000m1013hPa75%
20-Apr-2024 06:00Clear Sky17°C9 mph, NE0%10000m1012hPa77%
20-Apr-2024 09:00Clear Sky17°C9 mph, NE0%10000m1012hPa79%
20-Apr-2024 12:00Clear Sky19°C9 mph, NE0%10000m1013hPa74%
20-Apr-2024 15:00Clear Sky26°C11 mph, NE7%10000m1012hPa57%